Terminal Aerodrome Forecast
Issued by NWS La Crosse, WI

Home | Current Version | Previous Version | Text Only | Print | Product List | Glossary On
Versions: 1 2 3 4 5 6 7 8 9 10 11 12 13 14 15 16 17 18 19 20
000
FTUS43 KARX 280719 AAB
TAFRST
TAF AMD
KRST 280719Z 2807/2906 17004KT 1/4SM FG VV001
     FM281300 17005KT 3SM BR BKN003
     FM281500 17007KT P6SM SCT005 BKN015
     FM281700 18009KT P6SM SCT015=

USA.gov is the U.S. government's official web portal to all federal, state and local government web resources and services.